sensor_id;sensor_type;location;lat;lon;timestamp;P1;durP1;ratioP1;P2;durP2;ratioP2
2944;SDS011;1482;51.398;7.128;2023-05-07T00:00:18;10.53;;;7.17;;
2944;SDS011;1482;51.398;7.128;2023-05-07T00:02:47;7.77;;;6.97;;
2944;SDS011;1482;51.398;7.128;2023-05-07T00:05:13;7.00;;;6.20;;
2944;SDS011;1482;51.398;7.128;2023-05-07T00:07:39;8.97;;;7.00;;
2944;SDS011;1482;51.398;7.128;2023-05-07T00:10:05;7.57;;;6.80;;
2944;SDS011;1482;51.398;7.128;2023-05-07T00:12:31;9.70;;;6.37;;
2944;SDS011;1482;51.398;7.128;2023-05-07T00:15:01;13.23;;;6.10;;
2944;SDS011;1482;51.398;7.128;2023-05-07T00:17:29;7.87;;;7.17;;
2944;SDS011;1482;51.398;7.128;2023-05-07T00:19:55;6.87;;;6.27;;
2944;SDS011;1482;51.398;7.128;2023-05-07T00:22:20;6.43;;;5.80;;
2944;SDS011;1482;51.398;7.128;2023-05-07T00:24:46;7.27;;;6.53;;
2944;SDS011;1482;51.398;7.128;2023-05-07T00:27:12;6.87;;;6.27;;
2944;SDS011;1482;51.398;7.128;2023-05-07T00:29:37;6.50;;;5.90;;
2944;SDS011;1482;51.398;7.128;2023-05-07T00:32:03;7.97;;;6.40;;
2944;SDS011;1482;51.398;7.128;2023-05-07T00:34:28;11.30;;;6.83;;
2944;SDS011;1482;51.398;7.128;2023-05-07T00:36:54;7.93;;;7.17;;
2944;SDS011;1482;51.398;7.128;2023-05-07T00:39:20;9.13;;;7.50;;
2944;SDS011;1482;51.398;7.128;2023-05-07T00:41:45;8.07;;;7.13;;
2944;SDS011;1482;51.398;7.128;2023-05-07T00:44:11;7.70;;;6.80;;
2944;SDS011;1482;51.398;7.128;2023-05-07T00:46:36;9.37;;;6.70;;
2944;SDS011;1482;51.398;7.128;2023-05-07T00:49:02;7.73;;;7.03;;
2944;SDS011;1482;51.398;7.128;2023-05-07T00:51:28;9.43;;;8.47;;
2944;SDS011;1482;51.398;7.128;2023-05-07T00:53:54;7.70;;;7.00;;
2944;SDS011;1482;51.398;7.128;2023-05-07T00:56:21;8.33;;;7.50;;
2944;SDS011;1482;51.398;7.128;2023-05-07T00:58:47;11.17;;;9.57;;
2944;SDS011;1482;51.398;7.128;2023-05-07T01:01:13;7.90;;;7.30;;
2944;SDS011;1482;51.398;7.128;2023-05-07T01:03:41;10.50;;;9.37;;
2944;SDS011;1482;51.398;7.128;2023-05-07T01:06:07;14.87;;;10.93;;
2944;SDS011;1482;51.398;7.128;2023-05-07T01:08:34;10.40;;;9.50;;
2944;SDS011;1482;51.398;7.128;2023-05-07T01:11:00;12.07;;;10.53;;
2944;SDS011;1482;51.398;7.128;2023-05-07T01:13:27;14.67;;;13.10;;
2944;SDS011;1482;51.398;7.128;2023-05-07T01:15:53;14.87;;;10.70;;
2944;SDS011;1482;51.398;7.128;2023-05-07T01:18:19;12.33;;;11.13;;
2944;SDS011;1482;51.398;7.128;2023-05-07T01:20:45;13.30;;;12.00;;
2944;SDS011;1482;51.398;7.128;2023-05-07T01:23:11;14.67;;;11.53;;
2944;SDS011;1482;51.398;7.128;2023-05-07T01:25:37;13.17;;;11.40;;
2944;SDS011;1482;51.398;7.128;2023-05-07T01:28:02;15.47;;;11.57;;
2944;SDS011;1482;51.398;7.128;2023-05-07T01:30:28;11.47;;;10.37;;
2944;SDS011;1482;51.398;7.128;2023-05-07T01:33:04;12.20;;;10.97;;
2944;SDS011;1482;51.398;7.128;2023-05-07T01:35:38;11.57;;;10.47;;
2944;SDS011;1482;51.398;7.128;2023-05-07T01:38:06;12.77;;;11.40;;
2944;SDS011;1482;51.398;7.128;2023-05-07T01:40:33;12.00;;;10.80;;
2944;SDS011;1482;51.398;7.128;2023-05-07T01:42:59;11.17;;;9.93;;
2944;SDS011;1482;51.398;7.128;2023-05-07T01:45:28;12.90;;;10.60;;
2944;SDS011;1482;51.398;7.128;2023-05-07T01:47:55;11.33;;;9.67;;
2944;SDS011;1482;51.398;7.128;2023-05-07T01:50:22;15.83;;;11.37;;
2944;SDS011;1482;51.398;7.128;2023-05-07T01:52:50;14.97;;;11.83;;
2944;SDS011;1482;51.398;7.128;2023-05-07T01:55:15;12.73;;;10.53;;
2944;SDS011;1482;51.398;7.128;2023-05-07T01:57:41;17.17;;;11.90;;
2944;SDS011;1482;51.398;7.128;2023-05-07T02:00:07;11.80;;;10.50;;
2944;SDS011;1482;51.398;7.128;2023-05-07T02:02:33;13.20;;;10.77;;
2944;SDS011;1482;51.398;7.128;2023-05-07T02:04:59;12.60;;;11.40;;
2944;SDS011;1482;51.398;7.128;2023-05-07T02:07:26;11.83;;;10.63;;
2944;SDS011;1482;51.398;7.128;2023-05-07T02:09:52;11.63;;;10.23;;
2944;SDS011;1482;51.398;7.128;2023-05-07T02:12:18;12.03;;;10.80;;
2944;SDS011;1482;51.398;7.128;2023-05-07T02:14:44;12.23;;;10.70;;
2944;SDS011;1482;51.398;7.128;2023-05-07T02:17:09;12.23;;;10.80;;
2944;SDS011;1482;51.398;7.128;2023-05-07T02:19:35;10.93;;;9.80;;
2944;SDS011;1482;51.398;7.128;2023-05-07T02:22:00;11.13;;;9.90;;
2944;SDS011;1482;51.398;7.128;2023-05-07T02:24:26;13.23;;;10.03;;
2944;SDS011;1482;51.398;7.128;2023-05-07T02:26:51;11.57;;;10.40;;
2944;SDS011;1482;51.398;7.128;2023-05-07T02:29:17;10.63;;;9.43;;
2944;SDS011;1482;51.398;7.128;2023-05-07T02:31:42;10.93;;;9.93;;
2944;SDS011;1482;51.398;7.128;2023-05-07T02:34:08;9.67;;;8.77;;
2944;SDS011;1482;51.398;7.128;2023-05-07T02:36:34;9.97;;;8.97;;
2944;SDS011;1482;51.398;7.128;2023-05-07T02:39:00;10.33;;;8.50;;
2944;SDS011;1482;51.398;7.128;2023-05-07T02:41:25;11.03;;;9.10;;
2944;SDS011;1482;51.398;7.128;2023-05-07T02:43:53;10.90;;;9.93;;
2944;SDS011;1482;51.398;7.128;2023-05-07T02:46:18;10.13;;;8.67;;
2944;SDS011;1482;51.398;7.128;2023-05-07T02:48:44;11.17;;;10.17;;
2944;SDS011;1482;51.398;7.128;2023-05-07T02:51:09;10.67;;;9.57;;
2944;SDS011;1482;51.398;7.128;2023-05-07T02:53:35;11.37;;;10.27;;
2944;SDS011;1482;51.398;7.128;2023-05-07T02:56:01;11.50;;;10.30;;
2944;SDS011;1482;51.398;7.128;2023-05-07T02:58:27;11.47;;;10.20;;
2944;SDS011;1482;51.398;7.128;2023-05-07T03:00:53;12.70;;;11.30;;
2944;SDS011;1482;51.398;7.128;2023-05-07T03:03:22;17.80;;;11.30;;
2944;SDS011;1482;51.398;7.128;2023-05-07T03:05:48;15.63;;;10.13;;
2944;SDS011;1482;51.398;7.128;2023-05-07T03:08:13;16.03;;;10.50;;
2944;SDS011;1482;51.398;7.128;2023-05-07T03:10:39;15.63;;;9.87;;
2944;SDS011;1482;51.398;7.128;2023-05-07T03:13:05;10.77;;;9.63;;
2944;SDS011;1482;51.398;7.128;2023-05-07T03:15:30;11.80;;;9.90;;
2944;SDS011;1482;51.398;7.128;2023-05-07T03:17:56;10.17;;;9.27;;
2944;SDS011;1482;51.398;7.128;2023-05-07T03:20:22;12.50;;;9.07;;
2944;SDS011;1482;51.398;7.128;2023-05-07T03:22:47;10.83;;;9.80;;
2944;SDS011;1482;51.398;7.128;2023-05-07T03:25:13;9.40;;;8.60;;
2944;SDS011;1482;51.398;7.128;2023-05-07T03:27:39;13.77;;;9.67;;
2944;SDS011;1482;51.398;7.128;2023-05-07T03:30:06;17.03;;;9.33;;
2944;SDS011;1482;51.398;7.128;2023-05-07T03:32:33;11.67;;;9.23;;
2944;SDS011;1482;51.398;7.128;2023-05-07T03:35:00;8.57;;;7.80;;
2944;SDS011;1482;51.398;7.128;2023-05-07T03:37:26;9.10;;;8.20;;
2944;SDS011;1482;51.398;7.128;2023-05-07T03:39:51;9.17;;;8.23;;
2944;SDS011;1482;51.398;7.128;2023-05-07T03:42:17;8.40;;;7.70;;
2944;SDS011;1482;51.398;7.128;2023-05-07T03:44:42;11.03;;;7.27;;
2944;SDS011;1482;51.398;7.128;2023-05-07T03:47:08;13.90;;;7.60;;
2944;SDS011;1482;51.398;7.128;2023-05-07T03:49:35;7.60;;;6.87;;
2944;SDS011;1482;51.398;7.128;2023-05-07T03:52:00;9.03;;;8.17;;
2944;SDS011;1482;51.398;7.128;2023-05-07T03:54:26;10.20;;;7.07;;
2944;SDS011;1482;51.398;7.128;2023-05-07T03:56:51;9.80;;;7.90;;
2944;SDS011;1482;51.398;7.128;2023-05-07T03:59:17;8.47;;;7.13;;
2944;SDS011;1482;51.398;7.128;2023-05-07T04:01:42;10.57;;;7.70;;
2944;SDS011;1482;51.398;7.128;2023-05-07T04:04:08;9.60;;;8.60;;
2944;SDS011;1482;51.398;7.128;2023-05-07T04:06:36;11.63;;;10.43;;
2944;SDS011;1482;51.398;7.128;2023-05-07T04:09:02;9.27;;;8.23;;
2944;SDS011;1482;51.398;7.128;2023-05-07T04:11:28;12.07;;;9.23;;
2944;SDS011;1482;51.398;7.128;2023-05-07T04:13:53;11.70;;;8.80;;
2944;SDS011;1482;51.398;7.128;2023-05-07T04:16:19;11.63;;;9.73;;
2944;SDS011;1482;51.398;7.128;2023-05-07T04:18:44;11.10;;;9.90;;
2944;SDS011;1482;51.398;7.128;2023-05-07T04:21:13;11.77;;;10.53;;
2944;SDS011;1482;51.398;7.128;2023-05-07T04:23:46;11.57;;;9.67;;
2944;SDS011;1482;51.398;7.128;2023-05-07T04:26:12;10.90;;;9.67;;
2944;SDS011;1482;51.398;7.128;2023-05-07T04:28:38;12.00;;;10.80;;
2944;SDS011;1482;51.398;7.128;2023-05-07T04:31:04;11.27;;;10.17;;
2944;SDS011;1482;51.398;7.128;2023-05-07T04:33:30;12.17;;;10.90;;
2944;SDS011;1482;51.398;7.128;2023-05-07T04:35:56;12.17;;;10.97;;
2944;SDS011;1482;51.398;7.128;2023-05-07T04:38:22;13.70;;;10.90;;
2944;SDS011;1482;51.398;7.128;2023-05-07T04:40:49;10.43;;;9.27;;
2944;SDS011;1482;51.398;7.128;2023-05-07T04:43:14;9.60;;;8.63;;
2944;SDS011;1482;51.398;7.128;2023-05-07T04:45:40;11.70;;;9.90;;
2944;SDS011;1482;51.398;7.128;2023-05-07T04:48:06;9.50;;;8.70;;
2944;SDS011;1482;51.398;7.128;2023-05-07T04:50:33;13.23;;;9.83;;
2944;SDS011;1482;51.398;7.128;2023-05-07T04:52:59;10.43;;;9.43;;
2944;SDS011;1482;51.398;7.128;2023-05-07T04:55:24;10.83;;;9.83;;
2944;SDS011;1482;51.398;7.128;2023-05-07T04:57:50;11.13;;;10.00;;
2944;SDS011;1482;51.398;7.128;2023-05-07T05:00:16;11.67;;;10.47;;
2944;SDS011;1482;51.398;7.128;2023-05-07T05:02:44;10.60;;;9.30;;
2944;SDS011;1482;51.398;7.128;2023-05-07T05:05:10;11.30;;;9.53;;
2944;SDS011;1482;51.398;7.128;2023-05-07T05:07:36;12.03;;;9.80;;
2944;SDS011;1482;51.398;7.128;2023-05-07T05:10:02;9.70;;;8.80;;
2944;SDS011;1482;51.398;7.128;2023-05-07T05:12:28;9.73;;;8.90;;
2944;SDS011;1482;51.398;7.128;2023-05-07T05:14:55;10.37;;;9.53;;
2944;SDS011;1482;51.398;7.128;2023-05-07T05:17:20;12.37;;;8.90;;
2944;SDS011;1482;51.398;7.128;2023-05-07T05:19:46;10.70;;;9.70;;
2944;SDS011;1482;51.398;7.128;2023-05-07T05:22:11;12.70;;;9.13;;
2944;SDS011;1482;51.398;7.128;2023-05-07T05:24:37;11.13;;;9.90;;
2944;SDS011;1482;51.398;7.128;2023-05-07T05:27:02;15.20;;;8.77;;
2944;SDS011;1482;51.398;7.128;2023-05-07T05:29:29;10.33;;;9.53;;
2944;SDS011;1482;51.398;7.128;2023-05-07T05:31:56;10.90;;;9.83;;
2944;SDS011;1482;51.398;7.128;2023-05-07T05:34:22;11.07;;;9.97;;
2944;SDS011;1482;51.398;7.128;2023-05-07T05:36:47;10.70;;;9.57;;
2944;SDS011;1482;51.398;7.128;2023-05-07T05:39:13;9.87;;;8.97;;
2944;SDS011;1482;51.398;7.128;2023-05-07T05:41:39;13.43;;;8.53;;
2944;SDS011;1482;51.398;7.128;2023-05-07T05:44:04;11.87;;;8.70;;
2944;SDS011;1482;51.398;7.128;2023-05-07T05:46:30;9.67;;;8.77;;
2944;SDS011;1482;51.398;7.128;2023-05-07T05:48:56;10.87;;;9.77;;
2944;SDS011;1482;51.398;7.128;2023-05-07T05:51:21;11.90;;;9.77;;
2944;SDS011;1482;51.398;7.128;2023-05-07T05:53:48;10.63;;;9.63;;
2944;SDS011;1482;51.398;7.128;2023-05-07T05:56:13;10.67;;;9.63;;
2944;SDS011;1482;51.398;7.128;2023-05-07T05:58:40;11.23;;;10.10;;
2944;SDS011;1482;51.398;7.128;2023-05-07T06:01:06;11.27;;;10.13;;
2944;SDS011;1482;51.398;7.128;2023-05-07T06:03:31;10.13;;;8.93;;
2944;SDS011;1482;51.398;7.128;2023-05-07T06:06:00;10.50;;;9.50;;
2944;SDS011;1482;51.398;7.128;2023-05-07T06:08:26;11.30;;;10.13;;
2944;SDS011;1482;51.398;7.128;2023-05-07T06:10:54;11.60;;;9.70;;
2944;SDS011;1482;51.398;7.128;2023-05-07T06:13:20;10.87;;;9.40;;
2944;SDS011;1482;51.398;7.128;2023-05-07T06:15:45;9.63;;;8.67;;
2944;SDS011;1482;51.398;7.128;2023-05-07T06:18:11;10.50;;;9.53;;
2944;SDS011;1482;51.398;7.128;2023-05-07T06:20:36;10.03;;;9.03;;
2944;SDS011;1482;51.398;7.128;2023-05-07T06:23:02;8.70;;;7.83;;
2944;SDS011;1482;51.398;7.128;2023-05-07T06:25:27;9.43;;;8.63;;
2944;SDS011;1482;51.398;7.128;2023-05-07T06:27:53;9.77;;;8.77;;
2944;SDS011;1482;51.398;7.128;2023-05-07T06:30:19;8.73;;;8.03;;
2944;SDS011;1482;51.398;7.128;2023-05-07T06:32:44;8.30;;;7.60;;
2944;SDS011;1482;51.398;7.128;2023-05-07T06:35:10;9.00;;;8.10;;
2944;SDS011;1482;51.398;7.128;2023-05-07T06:37:35;9.80;;;8.83;;
2944;SDS011;1482;51.398;7.128;2023-05-07T06:40:03;9.53;;;8.63;;
2944;SDS011;1482;51.398;7.128;2023-05-07T06:42:30;11.60;;;8.07;;
2944;SDS011;1482;51.398;7.128;2023-05-07T06:44:55;9.17;;;8.27;;
2944;SDS011;1482;51.398;7.128;2023-05-07T06:47:21;9.27;;;8.30;;
2944;SDS011;1482;51.398;7.128;2023-05-07T06:49:46;8.50;;;7.50;;
2944;SDS011;1482;51.398;7.128;2023-05-07T06:52:12;7.20;;;6.50;;
2944;SDS011;1482;51.398;7.128;2023-05-07T06:54:37;9.23;;;6.60;;
2944;SDS011;1482;51.398;7.128;2023-05-07T06:57:03;6.67;;;6.03;;
2944;SDS011;1482;51.398;7.128;2023-05-07T06:59:28;6.70;;;6.13;;
2944;SDS011;1482;51.398;7.128;2023-05-07T07:01:54;5.60;;;5.10;;
2944;SDS011;1482;51.398;7.128;2023-05-07T07:04:20;8.10;;;6.20;;
2944;SDS011;1482;51.398;7.128;2023-05-07T07:06:47;6.73;;;6.13;;
2944;SDS011;1482;51.398;7.128;2023-05-07T07:09:13;12.20;;;5.60;;
2944;SDS011;1482;51.398;7.128;2023-05-07T07:11:39;6.83;;;6.23;;
2944;SDS011;1482;51.398;7.128;2023-05-07T07:14:04;7.23;;;5.77;;
2944;SDS011;1482;51.398;7.128;2023-05-07T07:16:30;5.47;;;5.07;;
2944;SDS011;1482;51.398;7.128;2023-05-07T07:18:56;6.20;;;5.60;;
2944;SDS011;1482;51.398;7.128;2023-05-07T07:21:21;5.87;;;5.37;;
2944;SDS011;1482;51.398;7.128;2023-05-07T07:23:47;9.63;;;4.77;;
2944;SDS011;1482;51.398;7.128;2023-05-07T07:26:12;7.50;;;6.20;;
2944;SDS011;1482;51.398;7.128;2023-05-07T07:28:44;7.30;;;5.00;;
2944;SDS011;1482;51.398;7.128;2023-05-07T07:31:10;6.13;;;5.53;;
2944;SDS011;1482;51.398;7.128;2023-05-07T07:33:36;8.00;;;5.13;;
2944;SDS011;1482;51.398;7.128;2023-05-07T07:36:02;5.17;;;4.67;;
2944;SDS011;1482;51.398;7.128;2023-05-07T07:38:27;6.30;;;4.33;;
2944;SDS011;1482;51.398;7.128;2023-05-07T07:40:53;4.43;;;4.03;;
2944;SDS011;1482;51.398;7.128;2023-05-07T07:43:19;4.20;;;3.80;;
2944;SDS011;1482;51.398;7.128;2023-05-07T07:45:45;7.93;;;4.90;;
2944;SDS011;1482;51.398;7.128;2023-05-07T07:48:11;4.63;;;3.60;;
2944;SDS011;1482;51.398;7.128;2023-05-07T07:50:36;4.43;;;4.03;;
2944;SDS011;1482;51.398;7.128;2023-05-07T07:53:02;5.40;;;3.80;;
2944;SDS011;1482;51.398;7.128;2023-05-07T07:55:28;4.03;;;3.67;;
2944;SDS011;1482;51.398;7.128;2023-05-07T07:57:53;4.80;;;4.40;;
2944;SDS011;1482;51.398;7.128;2023-05-07T08:00:19;4.07;;;3.70;;
2944;SDS011;1482;51.398;7.128;2023-05-07T08:02:45;5.73;;;5.00;;
2944;SDS011;1482;51.398;7.128;2023-05-07T08:05:10;3.73;;;3.43;;
2944;SDS011;1482;51.398;7.128;2023-05-07T08:07:36;4.00;;;3.60;;
2944;SDS011;1482;51.398;7.128;2023-05-07T08:10:01;5.60;;;3.40;;
2944;SDS011;1482;51.398;7.128;2023-05-07T08:12:27;4.43;;;3.77;;
2944;SDS011;1482;51.398;7.128;2023-05-07T08:14:53;4.60;;;3.93;;
2944;SDS011;1482;51.398;7.128;2023-05-07T08:17:18;6.53;;;3.00;;
2944;SDS011;1482;51.398;7.128;2023-05-07T08:19:47;6.83;;;3.43;;
2944;SDS011;1482;51.398;7.128;2023-05-07T08:22:12;3.87;;;3.47;;
2944;SDS011;1482;51.398;7.128;2023-05-07T08:24:38;5.00;;;3.07;;
2944;SDS011;1482;51.398;7.128;2023-05-07T08:27:05;5.50;;;3.70;;
2944;SDS011;1482;51.398;7.128;2023-05-07T08:29:30;6.60;;;3.17;;
2944;SDS011;1482;51.398;7.128;2023-05-07T08:31:56;4.80;;;3.43;;
2944;SDS011;1482;51.398;7.128;2023-05-07T08:34:21;3.60;;;3.30;;
2944;SDS011;1482;51.398;7.128;2023-05-07T08:36:47;3.10;;;2.80;;
2944;SDS011;1482;51.398;7.128;2023-05-07T08:39:13;3.37;;;3.07;;
2944;SDS011;1482;51.398;7.128;2023-05-07T08:41:44;3.57;;;3.27;;
2944;SDS011;1482;51.398;7.128;2023-05-07T08:44:13;4.60;;;3.17;;
2944;SDS011;1482;51.398;7.128;2023-05-07T08:46:41;3.53;;;3.30;;
2944;SDS011;1482;51.398;7.128;2023-05-07T08:49:08;4.37;;;3.43;;
2944;SDS011;1482;51.398;7.128;2023-05-07T08:51:34;5.67;;;3.13;;
2944;SDS011;1482;51.398;7.128;2023-05-07T08:54:01;6.40;;;3.00;;
2944;SDS011;1482;51.398;7.128;2023-05-07T08:56:26;6.33;;;3.30;;
2944;SDS011;1482;51.398;7.128;2023-05-07T08:58:52;3.60;;;2.57;;
2944;SDS011;1482;51.398;7.128;2023-05-07T09:01:21;3.00;;;2.80;;
2944;SDS011;1482;51.398;7.128;2023-05-07T09:03:47;4.30;;;3.27;;
2944;SDS011;1482;51.398;7.128;2023-05-07T09:06:12;2.30;;;2.10;;
2944;SDS011;1482;51.398;7.128;2023-05-07T09:08:38;5.03;;;2.50;;
2944;SDS011;1482;51.398;7.128;2023-05-07T09:11:04;2.80;;;2.60;;
2944;SDS011;1482;51.398;7.128;2023-05-07T09:13:30;4.00;;;2.40;;
2944;SDS011;1482;51.398;7.128;2023-05-07T09:15:55;4.20;;;2.40;;
2944;SDS011;1482;51.398;7.128;2023-05-07T09:18:23;2.53;;;2.00;;
2944;SDS011;1482;51.398;7.128;2023-05-07T09:20:50;2.80;;;2.50;;
2944;SDS011;1482;51.398;7.128;2023-05-07T09:23:15;3.10;;;2.80;;
2944;SDS011;1482;51.398;7.128;2023-05-07T09:25:41;5.50;;;2.03;;
2944;SDS011;1482;51.398;7.128;2023-05-07T09:28:07;2.37;;;2.17;;
2944;SDS011;1482;51.398;7.128;2023-05-07T09:30:34;2.80;;;2.60;;
2944;SDS011;1482;51.398;7.128;2023-05-07T09:33:00;2.27;;;2.07;;
2944;SDS011;1482;51.398;7.128;2023-05-07T09:35:27;3.73;;;2.03;;
2944;SDS011;1482;51.398;7.128;2023-05-07T09:37:55;1.93;;;1.73;;
2944;SDS011;1482;51.398;7.128;2023-05-07T09:40:23;2.40;;;2.17;;
2944;SDS011;1482;51.398;7.128;2023-05-07T09:42:49;2.63;;;2.30;;
2944;SDS011;1482;51.398;7.128;2023-05-07T09:45:16;4.80;;;1.90;;
2944;SDS011;1482;51.398;7.128;2023-05-07T09:47:46;2.83;;;2.63;;
2944;SDS011;1482;51.398;7.128;2023-05-07T09:50:14;2.23;;;2.13;;
2944;SDS011;1482;51.398;7.128;2023-05-07T09:52:40;2.53;;;2.33;;
2944;SDS011;1482;51.398;7.128;2023-05-07T09:55:09;2.30;;;2.20;;
2944;SDS011;1482;51.398;7.128;2023-05-07T09:57:35;3.10;;;2.33;;
2944;SDS011;1482;51.398;7.128;2023-05-07T10:00:02;3.63;;;3.03;;
2944;SDS011;1482;51.398;7.128;2023-05-07T10:02:29;2.83;;;2.63;;
2944;SDS011;1482;51.398;7.128;2023-05-07T10:04:56;4.77;;;3.20;;
2944;SDS011;1482;51.398;7.128;2023-05-07T10:07:25;2.23;;;2.07;;
2944;SDS011;1482;51.398;7.128;2023-05-07T10:09:51;2.37;;;2.17;;
2944;SDS011;1482;51.398;7.128;2023-05-07T10:12:18;2.80;;;2.60;;
2944;SDS011;1482;51.398;7.128;2023-05-07T10:14:45;2.20;;;2.03;;
2944;SDS011;1482;51.398;7.128;2023-05-07T10:17:11;3.90;;;3.20;;
2944;SDS011;1482;51.398;7.128;2023-05-07T10:19:38;5.97;;;3.27;;
2944;SDS011;1482;51.398;7.128;2023-05-07T10:22:05;2.87;;;2.60;;
2944;SDS011;1482;51.398;7.128;2023-05-07T10:24:33;2.50;;;2.07;;
2944;SDS011;1482;51.398;7.128;2023-05-07T10:27:00;4.47;;;3.23;;
2944;SDS011;1482;51.398;7.128;2023-05-07T10:29:37;3.40;;;2.73;;
2944;SDS011;1482;51.398;7.128;2023-05-07T10:34:48;3.47;;;2.37;;
2944;SDS011;1482;51.398;7.128;2023-05-07T10:37:18;2.40;;;2.20;;
2944;SDS011;1482;51.398;7.128;2023-05-07T10:39:44;3.13;;;2.50;;
2944;SDS011;1482;51.398;7.128;2023-05-07T10:42:10;4.60;;;3.07;;
2944;SDS011;1482;51.398;7.128;2023-05-07T10:44:37;4.50;;;3.40;;
2944;SDS011;1482;51.398;7.128;2023-05-07T10:47:04;4.53;;;4.17;;
2944;SDS011;1482;51.398;7.128;2023-05-07T10:50:22;3.20;;;3.00;;
2944;SDS011;1482;51.398;7.128;2023-05-07T10:52:31;3.30;;;3.10;;
2944;SDS011;1482;51.398;7.128;2023-05-07T10:57:42;3.60;;;3.10;;
2944;SDS011;1482;51.398;7.128;2023-05-07T11:05:30;4.57;;;4.27;;
2944;SDS011;1482;51.398;7.128;2023-05-07T11:07:58;4.23;;;3.67;;
2944;SDS011;1482;51.398;7.128;2023-05-07T11:13:40;4.00;;;3.60;;
2944;SDS011;1482;51.398;7.128;2023-05-07T11:16:16;4.37;;;3.90;;
2944;SDS011;1482;51.398;7.128;2023-05-07T11:18:52;5.13;;;4.73;;
2944;SDS011;1482;51.398;7.128;2023-05-07T11:21:53;4.40;;;4.00;;
2944;SDS011;1482;51.398;7.128;2023-05-07T11:24:11;8.20;;;4.20;;
2944;SDS011;1482;51.398;7.128;2023-05-07T11:29:10;5.00;;;4.10;;
2944;SDS011;1482;51.398;7.128;2023-05-07T11:31:38;4.50;;;4.20;;
2944;SDS011;1482;51.398;7.128;2023-05-07T11:34:04;4.90;;;3.97;;
2944;SDS011;1482;51.398;7.128;2023-05-07T11:36:31;4.73;;;4.33;;
2944;SDS011;1482;51.398;7.128;2023-05-07T11:38:57;4.47;;;4.07;;
2944;SDS011;1482;51.398;7.128;2023-05-07T11:41:32;4.97;;;4.57;;
2944;SDS011;1482;51.398;7.128;2023-05-07T11:44:00;4.90;;;4.50;;
2944;SDS011;1482;51.398;7.128;2023-05-07T11:46:26;5.50;;;5.00;;
2944;SDS011;1482;51.398;7.128;2023-05-07T11:48:53;4.70;;;4.23;;
2944;SDS011;1482;51.398;7.128;2023-05-07T11:51:25;6.20;;;4.70;;
2944;SDS011;1482;51.398;7.128;2023-05-07T11:53:51;4.60;;;4.20;;
2944;SDS011;1482;51.398;7.128;2023-05-07T11:56:18;4.97;;;4.60;;
2944;SDS011;1482;51.398;7.128;2023-05-07T11:58:44;8.10;;;4.53;;
2944;SDS011;1482;51.398;7.128;2023-05-07T12:01:12;5.83;;;4.47;;
2944;SDS011;1482;51.398;7.128;2023-05-07T12:03:41;4.03;;;3.73;;
2944;SDS011;1482;51.398;7.128;2023-05-07T12:06:08;6.53;;;4.40;;
2944;SDS011;1482;51.398;7.128;2023-05-07T12:08:36;6.30;;;4.67;;
2944;SDS011;1482;51.398;7.128;2023-05-07T12:11:03;5.90;;;5.40;;
2944;SDS011;1482;51.398;7.128;2023-05-07T12:13:31;16.43;;;6.10;;
2944;SDS011;1482;51.398;7.128;2023-05-07T12:15:57;5.87;;;5.37;;
2944;SDS011;1482;51.398;7.128;2023-05-07T12:18:23;6.23;;;5.73;;
2944;SDS011;1482;51.398;7.128;2023-05-07T12:20:49;8.67;;;7.70;;
2944;SDS011;1482;51.398;7.128;2023-05-07T12:23:15;5.93;;;5.17;;
2944;SDS011;1482;51.398;7.128;2023-05-07T12:25:42;6.70;;;5.83;;
2944;SDS011;1482;51.398;7.128;2023-05-07T12:28:17;5.00;;;4.60;;
2944;SDS011;1482;51.398;7.128;2023-05-07T12:30:44;4.90;;;4.50;;
2944;SDS011;1482;51.398;7.128;2023-05-07T12:33:11;5.53;;;5.10;;
2944;SDS011;1482;51.398;7.128;2023-05-07T12:35:37;5.60;;;5.10;;
2944;SDS011;1482;51.398;7.128;2023-05-07T12:38:10;5.23;;;4.83;;
2944;SDS011;1482;51.398;7.128;2023-05-07T12:40:42;4.80;;;4.50;;
2944;SDS011;1482;51.398;7.128;2023-05-07T12:45:50;5.43;;;4.90;;
2944;SDS011;1482;51.398;7.128;2023-05-07T12:48:18;4.97;;;4.03;;
2944;SDS011;1482;51.398;7.128;2023-05-07T12:50:44;7.03;;;5.63;;
2944;SDS011;1482;51.398;7.128;2023-05-07T12:53:10;5.10;;;4.63;;
2944;SDS011;1482;51.398;7.128;2023-05-07T12:55:41;4.63;;;4.27;;
2944;SDS011;1482;51.398;7.128;2023-05-07T12:58:18;6.40;;;5.10;;
2944;SDS011;1482;51.398;7.128;2023-05-07T13:00:47;7.73;;;5.80;;
2944;SDS011;1482;51.398;7.128;2023-05-07T13:03:20;5.93;;;5.43;;
2944;SDS011;1482;51.398;7.128;2023-05-07T13:06:22;6.70;;;6.00;;
2944;SDS011;1482;51.398;7.128;2023-05-07T13:08:47;6.27;;;5.17;;
2944;SDS011;1482;51.398;7.128;2023-05-07T13:11:13;5.40;;;4.93;;
2944;SDS011;1482;51.398;7.128;2023-05-07T13:13:41;7.00;;;6.33;;
2944;SDS011;1482;51.398;7.128;2023-05-07T13:16:07;8.37;;;6.43;;
2944;SDS011;1482;51.398;7.128;2023-05-07T13:18:35;6.43;;;5.80;;
2944;SDS011;1482;51.398;7.128;2023-05-07T13:21:02;6.50;;;5.87;;
2944;SDS011;1482;51.398;7.128;2023-05-07T13:23:28;6.03;;;5.43;;
2944;SDS011;1482;51.398;7.128;2023-05-07T13:25:54;6.00;;;5.50;;
2944;SDS011;1482;51.398;7.128;2023-05-07T13:28:21;7.40;;;6.53;;
2944;SDS011;1482;51.398;7.128;2023-05-07T13:30:47;7.00;;;6.30;;
2944;SDS011;1482;51.398;7.128;2023-05-07T13:33:16;5.93;;;5.43;;
2944;SDS011;1482;51.398;7.128;2023-05-07T13:35:42;7.03;;;5.97;;
2944;SDS011;1482;51.398;7.128;2023-05-07T13:38:08;6.37;;;5.70;;
2944;SDS011;1482;51.398;7.128;2023-05-07T13:40:34;6.03;;;5.47;;
2944;SDS011;1482;51.398;7.128;2023-05-07T13:42:59;7.53;;;6.30;;
2944;SDS011;1482;51.398;7.128;2023-05-07T13:45:28;8.50;;;6.60;;
2944;SDS011;1482;51.398;7.128;2023-05-07T13:47:54;8.33;;;6.77;;
2944;SDS011;1482;51.398;7.128;2023-05-07T13:50:20;6.93;;;6.20;;
2944;SDS011;1482;51.398;7.128;2023-05-07T13:52:46;7.23;;;6.40;;
2944;SDS011;1482;51.398;7.128;2023-05-07T13:55:18;7.57;;;6.73;;
2944;SDS011;1482;51.398;7.128;2023-05-07T13:57:44;8.90;;;6.87;;
2944;SDS011;1482;51.398;7.128;2023-05-07T14:00:12;7.30;;;6.60;;
2944;SDS011;1482;51.398;7.128;2023-05-07T14:02:38;7.03;;;6.40;;
2944;SDS011;1482;51.398;7.128;2023-05-07T14:05:04;6.80;;;6.10;;
2944;SDS011;1482;51.398;7.128;2023-05-07T14:07:30;7.13;;;6.53;;
2944;SDS011;1482;51.398;7.128;2023-05-07T14:09:56;7.47;;;6.77;;
2944;SDS011;1482;51.398;7.128;2023-05-07T14:12:22;10.27;;;7.07;;
2944;SDS011;1482;51.398;7.128;2023-05-07T14:14:48;7.13;;;6.63;;
2944;SDS011;1482;51.398;7.128;2023-05-07T14:17:15;7.37;;;6.63;;
2944;SDS011;1482;51.398;7.128;2023-05-07T14:19:41;8.20;;;7.20;;
2944;SDS011;1482;51.398;7.128;2023-05-07T14:22:07;6.07;;;5.57;;
2944;SDS011;1482;51.398;7.128;2023-05-07T14:24:33;7.87;;;6.73;;
2944;SDS011;1482;51.398;7.128;2023-05-07T14:26:59;8.80;;;8.13;;
2944;SDS011;1482;51.398;7.128;2023-05-07T14:29:25;6.63;;;6.03;;
2944;SDS011;1482;51.398;7.128;2023-05-07T14:31:50;7.10;;;6.50;;
2944;SDS011;1482;51.398;7.128;2023-05-07T14:34:16;8.80;;;7.00;;
2944;SDS011;1482;51.398;7.128;2023-05-07T14:36:41;8.30;;;7.57;;
2944;SDS011;1482;51.398;7.128;2023-05-07T14:39:08;7.47;;;6.77;;
2944;SDS011;1482;51.398;7.128;2023-05-07T14:41:34;15.53;;;9.57;;
2944;SDS011;1482;51.398;7.128;2023-05-07T14:44:00;9.20;;;8.20;;
2944;SDS011;1482;51.398;7.128;2023-05-07T14:46:32;9.27;;;7.50;;
2944;SDS011;1482;51.398;7.128;2023-05-07T14:48:57;9.10;;;8.30;;
2944;SDS011;1482;51.398;7.128;2023-05-07T14:51:23;8.43;;;7.50;;
2944;SDS011;1482;51.398;7.128;2023-05-07T14:53:49;8.77;;;7.60;;
2944;SDS011;1482;51.398;7.128;2023-05-07T14:56:15;9.00;;;8.20;;
2944;SDS011;1482;51.398;7.128;2023-05-07T14:58:42;9.10;;;7.27;;
2944;SDS011;1482;51.398;7.128;2023-05-07T15:01:08;10.03;;;8.67;;
2944;SDS011;1482;51.398;7.128;2023-05-07T15:03:34;13.53;;;9.00;;
2944;SDS011;1482;51.398;7.128;2023-05-07T15:05:59;9.60;;;8.57;;
2944;SDS011;1482;51.398;7.128;2023-05-07T15:08:25;9.10;;;8.30;;
2944;SDS011;1482;51.398;7.128;2023-05-07T15:10:51;10.80;;;9.80;;
2944;SDS011;1482;51.398;7.128;2023-05-07T15:13:17;11.07;;;9.80;;
2944;SDS011;1482;51.398;7.128;2023-05-07T15:15:42;12.20;;;10.93;;
2944;SDS011;1482;51.398;7.128;2023-05-07T15:18:09;12.90;;;11.30;;
2944;SDS011;1482;51.398;7.128;2023-05-07T15:20:35;13.00;;;11.70;;
2944;SDS011;1482;51.398;7.128;2023-05-07T15:23:01;12.40;;;11.27;;